Time;durP1;ratioP1;P1;durP2;ratioP2;P2;SDS_P1;SDS_P2;PMS_P1;PMS_P2;Temp;Humidity;BMP_temperature;BMP_pressure;BME280_temperature;BME280_humidity;BME280_pressure;Samples;Min_cycle;Max_cycle;Signal;HPM_P1;HPM_P2
2023/03/21 00:00:59;;;;;;;;;25.75;24.75;;;;;15.25;55.69;101130.47;2105680;28;46277;-67
2023/03/21 00:01:59;;;;;;;;;23.80;20.80;;;;;15.24;55.91;101120.69;2106145;28;46105;-67
2023/03/21 00:03:00;;;;;;;;;20.00;18.25;;;;;15.23;55.51;101124.28;2099685;28;46870;-67
2023/03/21 00:04:02;;;;;;;;;19.60;17.40;;;;;15.22;55.46;101123.41;2102571;28;46150;-65
2023/03/21 00:05:02;;;;;;;;;20.20;18.60;;;;;15.22;55.21;101122.53;2105182;28;46950;-66
2023/03/21 00:06:08;;;;;;;;;19.00;18.75;;;;;15.20;55.32;101124.38;2105078;28;46426;-65
2023/03/21 00:07:08;;;;;;;;;21.40;18.00;;;;;15.20;55.34;101127.06;2104993;27;46857;-66
2023/03/21 00:08:08;;;;;;;;;16.50;16.00;;;;;15.19;55.37;101118.16;2105810;28;46241;-65
2023/03/21 00:09:09;;;;;;;;;19.50;17.75;;;;;15.19;55.34;101123.53;2105377;28;46635;-66
2023/03/21 00:10:09;;;;;;;;;18.75;17.75;;;;;15.19;55.70;101118.16;2096968;28;46616;-65
2023/03/21 00:11:11;;;;;;;;;16.25;16.00;;;;;15.18;55.41;101116.44;2096369;28;46435;-66
2023/03/21 00:12:13;;;;;;;;;14.60;14.60;;;;;15.17;55.02;101116.47;2108726;27;45554;-66
2023/03/21 00:13:15;;;;;;;;;15.00;15.00;;;;;15.17;55.31;101119.16;2105602;28;45719;-65
2023/03/21 00:14:18;;;;;;;;;17.00;15.20;;;;;15.18;55.31;101123.56;2105401;28;46462;-66
2023/03/21 00:15:19;;;;;;;;;15.60;15.40;;;;;15.18;55.36;101115.56;2111200;27;45362;-65
2023/03/21 00:16:20;;;;;;;;;17.40;15.40;;;;;15.19;55.54;101120.84;2096607;28;46409;-65
2023/03/21 00:17:21;;;;;;;;;14.50;14.50;;;;;15.19;55.43;101119.97;2095973;28;46269;-64
2023/03/21 00:18:24;;;;;;;;;16.00;14.60;;;;;15.19;55.28;101118.16;2106209;28;46853;-67
2023/03/21 00:19:25;;;;;;;;;12.20;12.20;;;;;15.20;55.18;101116.38;2105335;28;46650;-66
2023/03/21 00:20:25;;;;;;;;;12.50;12.50;;;;;15.20;54.93;101109.22;2101758;28;46755;-66
2023/03/21 00:21:31;;;;;;;;;13.25;11.25;;;;;15.19;54.87;101107.47;2088326;28;46828;-66
2023/03/21 00:22:34;;;;;;;;;13.00;13.00;;;;;15.22;54.69;101106.50;2096745;28;46141;-64
2023/03/21 00:23:35;;;;;;;;;13.60;12.40;;;;;15.22;54.88;101109.16;2105638;28;46322;-67
2023/03/21 00:24:36;;;;;;;;;14.50;14.50;;;;;15.23;55.07;101108.22;2105159;28;46621;-66
2023/03/21 00:25:36;;;;;;;;;12.20;11.60;;;;;15.23;55.06;101103.75;2105052;28;46332;-64
2023/03/21 00:26:37;;;;;;;;;13.00;11.75;;;;;15.23;55.04;101103.75;2104850;28;46512;-65
2023/03/21 00:27:37;;;;;;;;;13.25;12.50;;;;;15.23;54.49;101106.44;2098038;27;47311;-65
2023/03/21 00:28:42;;;;;;;;;13.00;12.75;;;;;15.21;55.06;101108.28;2105807;28;45125;-65
2023/03/21 00:29:42;;;;;;;;;10.40;10.40;;;;;15.20;55.07;101106.56;2105391;28;46546;-65
2023/03/21 00:30:43;;;;;;;;;15.00;13.00;;;;;15.19;54.59;101110.16;2097191;28;46291;-66
2023/03/21 00:31:43;;;;;;;;;10.00;10.00;;;;;15.17;54.46;101103.13;2097456;28;45291;-66
2023/03/21 00:32:45;;;;;;;;;9.50;9.50;;;;;15.16;54.73;101101.38;2097435;28;46827;-64
2023/03/21 00:33:46;;;;;;;;;7.40;7.40;;;;;15.13;54.74;101099.69;2097297;28;46543;-67
2023/03/21 00:34:48;;;;;;;;;11.25;10.25;;;;;15.12;54.71;101105.97;2090587;28;46141;-66
2023/03/21 00:35:51;;;;;;;;;11.00;10.20;;;;;15.12;55.26;101105.06;2096626;28;46346;-65
2023/03/21 00:36:51;;;;;;;;;12.60;10.60;;;;;15.10;54.71;101107.78;2105573;28;46793;-66
2023/03/21 00:37:51;;;;;;;;;10.50;9.50;;;;;15.09;55.17;101105.16;2105317;28;45979;-66
2023/03/21 00:38:52;;;;;;;;;7.50;7.50;;;;;15.08;54.87;101100.75;2105879;28;46848;-65
2023/03/21 00:39:53;;;;;;;;;10.00;8.50;;;;;15.07;54.70;101099.88;2105644;28;46602;-66
2023/03/21 00:40:53;;;;;;;;;7.50;7.50;;;;;15.07;55.28;101101.69;2105452;28;46373;-65
2023/03/21 00:41:54;;;;;;;;;10.00;9.50;;;;;15.06;54.89;101094.59;2105289;28;46446;-65
2023/03/21 00:42:54;;;;;;;;;13.50;11.50;;;;;15.05;55.02;101095.50;2096803;28;46336;-65
2023/03/21 00:43:54;;;;;;;;;8.50;8.00;;;;;15.04;55.21;101100.00;2096435;28;46727;-65
2023/03/21 00:44:55;;;;;;;;;10.25;10.25;;;;;15.03;55.03;101100.91;2104744;27;46656;-65
2023/03/21 00:45:57;;;;;;;;;6.75;6.75;;;;;15.02;54.70;101099.16;2105627;27;46762;-66
2023/03/21 00:47:01;;;;;;;;;8.80;8.80;;;;;15.02;54.59;101100.03;2100295;27;46554;-67
2023/03/21 00:48:02;;;;;;;;;10.40;8.60;;;;;15.03;54.77;101098.25;2100579;28;46211;-65
2023/03/21 00:49:02;;;;;;;;;8.25;7.00;;;;;15.00;54.76;101093.88;2105667;28;46681;-66
2023/03/21 00:50:03;;;;;;;;;9.50;8.25;;;;;14.99;54.71;101100.16;2099605;28;46409;-67
2023/03/21 00:51:14;;;;;;;;;7.40;7.40;;;;;14.97;54.86;101088.63;2097810;28;46463;-67
2023/03/21 00:52:14;;;;;;;;;7.00;5.60;;;;;14.98;54.99;101089.50;2105461;28;46765;-65
2023/03/21 00:53:14;;;;;;;;;8.25;8.25;;;;;14.97;54.63;101101.09;2105556;28;46578;-66
2023/03/21 00:54:16;;;;;;;;;8.75;8.75;;;;;14.96;54.70;101096.69;2105650;28;45620;-64
2023/03/21 00:55:18;;;;;;;;;8.00;8.00;;;;;14.94;54.44;101090.53;2105422;28;46715;-64
2023/03/21 00:56:18;;;;;;;;;7.00;6.00;;;;;14.95;55.06;101087.81;2103972;27;45694;-65
2023/03/21 00:57:18;;;;;;;;;7.00;6.50;;;;;14.94;55.00;101087.84;2105741;28;45898;-64
2023/03/21 00:58:19;;;;;;;;;8.00;7.75;;;;;14.96;55.00;101086.00;2105103;28;46185;-67
2023/03/21 00:59:19;;;;;;;;;10.00;10.00;;;;;14.94;54.85;101085.19;2096804;28;45751;-64
2023/03/21 01:00:21;;;;;;;;;8.50;7.00;;;;;14.92;54.55;101085.25;2096738;28;46221;-65
2023/03/21 01:01:21;;;;;;;;;8.00;8.00;;;;;14.91;54.47;101080.81;2104212;28;46073;-66
2023/03/21 01:02:25;;;;;;;;;8.25;8.25;;;;;14.91;54.89;101078.16;2105228;28;46237;-65
2023/03/21 01:03:25;;;;;;;;;8.60;8.60;;;;;14.91;54.83;101087.97;2105274;28;46918;-64
2023/03/21 01:04:27;;;;;;;;;11.25;11.25;;;;;14.92;54.92;101079.91;2105579;28;46753;-65
2023/03/21 01:06:48;;;;;;;;;14.00;11.40;;;;;14.91;55.19;101082.63;2099191;28;47005;-66
2023/03/21 01:07:49;;;;;;;;;9.50;9.50;;;;;14.90;54.87;101079.09;2089016;28;46643;-66
2023/03/21 01:08:52;;;;;;;;;8.80;8.00;;;;;14.89;54.83;101072.00;2092222;28;47065;-66
2023/03/21 01:09:52;;;;;;;;;9.50;9.00;;;;;14.89;54.67;101080.00;2103681;28;46292;-65
2023/03/21 01:10:54;;;;;;;;;9.50;9.50;;;;;14.89;54.56;101068.44;2104913;28;46585;-67
2023/03/21 01:11:54;;;;;;;;;9.60;9.00;;;;;14.89;54.78;101069.31;2107745;27;46445;-66
2023/03/21 01:12:55;;;;;;;;;8.00;8.00;;;;;14.90;54.63;101075.53;2112731;27;46302;-65
2023/03/21 01:13:56;;;;;;;;;9.25;8.25;;;;;14.88;54.61;101066.69;2101825;28;46154;-67
2023/03/21 01:14:56;;;;;;;;;11.80;11.80;;;;;14.87;54.31;101067.63;2104961;27;46588;-66
2023/03/21 01:15:59;;;;;;;;;10.50;10.00;;;;;14.85;54.79;101073.00;2105427;28;46312;-66
2023/03/21 01:16:59;;;;;;;;;8.80;8.40;;;;;14.84;54.68;101070.38;2105728;28;47221;-65
2023/03/21 01:18:00;;;;;;;;;11.00;10.75;;;;;14.84;54.61;101067.72;2102554;28;46541;-66
2023/03/21 01:19:00;;;;;;;;;9.25;9.25;;;;;14.82;55.19;101069.56;2105806;28;46314;-66
2023/03/21 01:20:01;;;;;;;;;13.00;10.60;;;;;14.82;55.27;101064.22;2105038;28;46702;-66
2023/03/21 01:21:07;;;;;;;;;12.00;10.50;;;;;14.81;55.23;101068.69;2105312;28;46286;-66
2023/03/21 01:22:08;;;;;;;;;15.00;13.40;;;;;14.81;55.07;101070.50;2104736;28;46936;-66
2023/03/21 01:23:10;;;;;;;;;12.75;12.00;;;;;14.82;54.86;101070.44;2101252;28;45784;-66
2023/03/21 01:24:10;;;;;;;;;13.40;11.80;;;;;14.80;55.02;101066.94;2096630;28;46401;-67
2023/03/21 01:25:11;;;;;;;;;13.25;12.25;;;;;14.79;55.37;101067.88;2104868;28;45640;-66
2023/03/21 01:26:12;;;;;;;;;12.00;12.00;;;;;14.79;55.00;101064.31;2105237;28;46377;-66
2023/03/21 01:27:12;;;;;;;;;11.60;11.60;;;;;14.78;55.43;101067.94;2105202;28;45763;-66
2023/03/21 01:28:13;;;;;;;;;12.50;11.00;;;;;14.77;55.30;101064.38;2105044;28;46234;-66
2023/03/21 01:29:14;;;;;;;;;11.25;11.25;;;;;14.77;55.32;101064.38;2105315;28;47037;-66
2023/03/21 01:30:14;;;;;;;;;11.25;10.50;;;;;14.77;54.99;101063.50;2086638;28;46389;-65
2023/03/21 01:31:16;;;;;;;;;10.50;10.50;;;;;14.76;55.03;101067.09;2079352;28;46939;-66
2023/03/21 01:32:17;;;;;;;;;12.40;12.40;;;;;14.75;54.90;101060.91;2096444;28;46325;-66
2023/03/21 01:33:19;;;;;;;;;12.50;12.50;;;;;14.75;55.25;101065.38;2090263;28;46216;-65
2023/03/21 01:34:19;;;;;;;;;11.40;11.40;;;;;14.75;54.88;101062.69;2087556;28;46427;-66
2023/03/21 01:35:20;;;;;;;;;13.25;12.50;;;;;14.75;55.02;101065.38;2103005;28;46243;-65
2023/03/21 01:36:23;;;;;;;;;14.00;12.50;;;;;14.76;55.18;101067.97;2105550;28;46869;-67
2023/03/21 01:37:25;;;;;;;;;14.00;13.40;;;;;14.76;55.13;101064.44;2104925;28;47019;-65
2023/03/21 01:38:26;;;;;;;;;16.60;13.20;;;;;14.77;54.91;101053.69;2105136;28;46482;-65
2023/03/21 01:39:26;;;;;;;;;12.00;10.50;;;;;14.77;54.75;101051.03;2105216;28;47108;-65
2023/03/21 01:40:27;;;;;;;;;11.50;11.50;;;;;14.77;55.01;101060.84;2105093;28;46215;-67
2023/03/21 01:41:33;;;;;;;;;12.00;12.00;;;;;14.76;54.69;101051.97;2105573;28;46531;-66
2023/03/21 01:42:34;;;;;;;;;11.20;11.20;;;;;14.75;54.76;101062.69;2098783;28;46424;-66
2023/03/21 01:43:35;;;;;;;;;14.25;14.25;;;;;14.75;54.81;101063.56;2105247;28;46355;-66
2023/03/21 01:44:57;;;;;;;;;12.80;12.80;;;;;14.74;54.69;101059.16;2105069;28;46776;-65
2023/03/21 01:46:09;;;;;;;;;10.40;10.00;;;;;14.73;55.02;101063.59;2100569;28;46401;-66
2023/03/21 01:47:10;;;;;;;;;11.40;10.80;;;;;14.74;54.72;101059.16;2099135;27;46397;-65
2023/03/21 01:48:10;;;;;;;;;14.00;11.75;;;;;14.71;54.56;101054.75;2107936;27;46255;-66
2023/03/21 01:49:19;;;;;;;;;12.25;12.25;;;;;14.71;54.71;101056.56;2107667;27;46878;-65
2023/03/21 01:50:22;;;;;;;;;13.00;12.40;;;;;14.71;54.74;101061.91;2104986;28;46532;-68
2023/03/21 01:51:26;;;;;;;;;10.20;9.80;;;;;14.69;54.74;101061.94;2109164;27;46676;-66
2023/03/21 01:52:37;;;;;;;;;13.80;13.60;;;;;14.68;54.97;101054.88;2110622;27;46762;-66
2023/03/21 01:53:40;;;;;;;;;10.00;10.00;;;;;14.67;54.67;101052.25;2113185;27;46506;-65
2023/03/21 01:54:41;;;;;;;;;12.00;11.80;;;;;14.67;54.96;101054.91;2110621;27;46521;-65
2023/03/21 01:55:42;;;;;;;;;10.80;9.40;;;;;14.66;55.02;101055.84;2101866;28;45905;-64
2023/03/21 01:56:45;;;;;;;;;10.75;9.25;;;;;14.66;54.64;101055.84;2104046;28;46682;-65
2023/03/21 01:57:54;;;;;;;;;7.00;7.00;;;;;14.64;54.50;101052.38;2107664;27;46570;-65
2023/03/21 01:59:02;;;;;;;;;8.80;8.80;;;;;14.64;54.74;101053.22;2110556;27;46310;-66
2023/03/21 02:00:10;;;;;;;;;7.80;7.40;;;;;14.62;54.37;101063.09;2113404;27;46553;-65
2023/03/21 02:01:11;;;;;;;;;10.80;9.20;;;;;14.61;54.63;101055.09;2110951;27;46851;-66
2023/03/21 02:02:26;;;;;;;;;11.75;9.25;;;;;14.61;54.47;101055.09;2105394;27;46247;-66
2023/03/21 02:03:28;;;;;;;;;11.40;11.40;;;;;14.60;54.53;101045.34;2107141;27;46924;-66
2023/03/21 02:04:29;;;;;;;;;9.20;9.20;;;;;14.61;54.34;101047.09;2101982;27;46744;-65
2023/03/21 02:05:37;;;;;;;;;11.00;9.75;;;;;14.62;54.74;101046.19;2106162;27;46114;-65
2023/03/21 02:06:57;;;;;;;;;11.20;10.20;;;;;14.61;54.20;101040.00;2110977;27;46711;-66
2023/03/21 02:07:59;;;;;;;;;8.40;7.60;;;;;14.61;54.33;101037.31;2110355;27;46762;-66
2023/03/21 02:09:03;;;;;;;;;11.60;10.40;;;;;14.62;54.39;101039.06;2105521;27;46671;-66
2023/03/21 02:10:08;;;;;;;;;8.50;8.50;;;;;14.61;54.16;101041.75;2104903;28;46511;-66
2023/03/21 02:11:09;;;;;;;;;11.00;8.40;;;;;14.61;54.21;101037.31;2106668;27;46872;-67
2023/03/21 02:12:09;;;;;;;;;8.25;7.25;;;;;14.60;54.26;101032.00;2098576;28;46637;-65
2023/03/21 02:13:10;;;;;;;;;11.75;10.25;;;;;14.60;54.01;101032.00;2095690;28;46520;-65
2023/03/21 02:14:14;;;;;;;;;9.25;9.00;;;;;14.59;54.11;101028.44;2106498;27;46390;-65
2023/03/21 02:15:14;;;;;;;;;12.20;11.20;;;;;14.61;54.22;101023.97;2110617;27;47256;-65
2023/03/21 02:16:23;;;;;;;;;9.00;9.00;;;;;14.59;53.68;101027.59;2105115;28;46466;-65
2023/03/21 02:17:55;;;;;;;;;7.80;7.80;;;;;14.57;54.04;101022.28;2106931;27;46363;-65
2023/03/21 02:19:14;;;;;;;;;8.80;8.00;;;;;14.57;53.99;101019.63;2106733;27;46942;-66
2023/03/21 02:20:36;;;;;;;;;9.60;8.00;;;;;14.59;53.96;101017.78;2106821;27;46249;-65
2023/03/21 02:22:10;;;;;;;;;8.60;8.60;;;;;14.58;53.98;101016.03;2105989;27;46498;-65
2023/03/21 02:23:20;;;;;;;;;9.00;9.00;;;;;14.59;53.93;101016.91;2096827;27;46774;-66
2023/03/21 02:24:49;;;;;;;;;10.60;10.00;;;;;14.59;53.94;101014.22;2105063;27;46860;-66
2023/03/21 02:25:59;;;;;;;;;8.20;8.20;;;;;14.58;53.82;101016.03;2110438;27;47056;-66
2023/03/21 02:27:05;;;;;;;;;12.00;10.80;;;;;14.57;53.81;101011.63;2113688;27;45660;-65
2023/03/21 02:28:15;;;;;;;;;11.20;10.60;;;;;14.58;53.53;101016.03;2113175;27;46878;-66
2023/03/21 02:29:25;;;;;;;;;11.80;11.00;;;;;14.57;53.63;101013.41;2096662;28;45669;-66
2023/03/21 02:30:35;;;;;;;;;10.80;9.60;;;;;14.56;54.00;101012.53;2105326;27;46483;-66
2023/03/21 02:32:03;;;;;;;;;11.60;9.60;;;;;14.57;53.70;101010.75;2107062;27;45884;-66
2023/03/21 02:33:22;;;;;;;;;7.00;5.50;;;;;14.57;53.68;101018.75;2104803;27;46633;-65
2023/03/21 02:34:31;;;;;;;;;10.00;10.00;;;;;14.56;53.31;101009.00;2096249;28;46485;-66
2023/03/21 02:36:08;;;;;;;;;9.75;8.00;;;;;14.54;53.64;101003.72;2110848;27;46917;-66
2023/03/21 02:37:27;;;;;;;;;10.20;10.00;;;;;14.54;53.45;101003.72;2102888;28;46947;-65
2023/03/21 02:38:39;;;;;;;;;5.25;5.25;;;;;14.54;53.36;101010.84;2107216;27;46455;-66
2023/03/21 02:40:06;;;;;;;;;8.00;8.00;;;;;14.53;52.96;101003.75;2095806;28;46271;-66
2023/03/21 02:41:32;;;;;;;;;9.20;8.20;;;;;14.50;53.14;101004.75;2101864;27;46502;-66
2023/03/21 02:42:53;;;;;;;;;8.80;8.80;;;;;14.47;53.13;101007.50;2105513;27;46717;-65
2023/03/21 02:44:15;;;;;;;;;11.80;9.00;;;;;14.47;53.28;101011.97;2104636;27;45857;-64
2023/03/21 02:45:37;;;;;;;;;6.00;6.00;;;;;14.47;53.17;101015.50;2103613;28;46592;-65
2023/03/21 02:46:42;;;;;;;;;7.80;6.40;;;;;14.46;53.37;101008.41;2103789;27;46903;-65
2023/03/21 02:47:51;;;;;;;;;6.40;6.00;;;;;14.47;53.41;101004.81;2097240;28;47034;-66
2023/03/21 02:48:59;;;;;;;;;5.00;5.00;;;;;14.48;52.91;100995.88;2097207;28;46517;-66
2023/03/21 02:50:04;;;;;;;;;9.20;8.40;;;;;14.48;53.23;100993.22;2108906;27;46491;-66
2023/03/21 02:51:08;;;;;;;;;7.00;7.00;;;;;14.48;53.21;100995.88;2109359;27;46337;-66
2023/03/21 02:52:16;;;;;;;;;8.60;8.60;;;;;14.48;52.93;100995.88;2114485;27;46791;-66
2023/03/21 02:53:22;;;;;;;;;8.00;7.40;;;;;14.49;52.80;100994.13;2111135;27;46949;-66
2023/03/21 02:54:24;;;;;;;;;6.20;6.20;;;;;14.49;52.55;100991.44;2111055;27;46395;-66
2023/03/21 02:55:27;;;;;;;;;5.50;4.25;;;;;14.48;52.88;100989.66;2113302;27;46771;-66
2023/03/21 02:56:30;;;;;;;;;8.00;7.60;;;;;14.48;52.90;100995.00;2113310;27;46835;-65
2023/03/21 02:57:32;;;;;;;;;7.80;6.00;;;;;14.47;52.40;100990.59;2106356;27;46458;-65
2023/03/21 02:58:32;;;;;;;;;7.40;7.40;;;;;14.45;52.38;100985.31;2109938;27;46633;-65
2023/03/21 02:59:35;;;;;;;;;5.00;5.00;;;;;14.45;52.70;100989.78;2107155;27;46624;-65
2023/03/21 03:00:37;;;;;;;;;9.60;8.00;;;;;14.44;52.14;100991.59;2107102;27;46467;-65
2023/03/21 03:01:37;;;;;;;;;6.60;6.60;;;;;14.42;52.33;100988.06;2109969;27;45205;-66
2023/03/21 03:02:39;;;;;;;;;6.75;6.50;;;;;14.41;52.31;100987.19;2106788;27;46371;-66
2023/03/21 03:03:41;;;;;;;;;7.20;7.20;;;;;14.41;52.33;100997.88;2109065;27;46610;-66
2023/03/21 03:04:42;;;;;;;;;5.00;4.40;;;;;14.41;52.15;100991.66;2110424;27;46510;-66
2023/03/21 03:05:56;;;;;;;;;5.00;5.00;;;;;14.41;52.38;100999.66;2106171;27;46328;-65
2023/03/21 03:07:28;;;;;;;;;5.80;5.80;;;;;14.40;52.40;100998.78;2113073;27;46751;-65
2023/03/21 03:08:51;;;;;;;;;6.80;6.80;;;;;14.39;52.35;100994.38;2101033;28;46545;-66
2023/03/21 03:10:16;;;;;;;;;4.25;4.00;;;;;14.39;52.25;100998.84;2097673;28;46081;-66
2023/03/21 03:11:36;;;;;;;;;7.60;7.00;;;;;14.38;52.31;100986.44;2111389;27;46572;-66
2023/03/21 03:13:20;;;;;;;;;6.20;6.20;;;;;14.37;52.31;100992.69;2110130;27;45995;-66
2023/03/21 03:14:23;;;;;;;;;6.00;6.00;;;;;14.36;52.44;100994.50;2107182;27;46323;-66
2023/03/21 03:15:54;;;;;;;;;8.20;7.00;;;;;14.37;52.56;100987.34;2106375;27;46899;-67
2023/03/21 03:17:13;;;;;;;;;6.40;6.40;;;;;14.37;52.37;101000.69;2107939;27;47056;-65
2023/03/21 03:18:32;;;;;;;;;6.80;6.80;;;;;14.36;52.69;100990.94;2110121;27;46364;-65
2023/03/21 03:19:39;;;;;;;;;4.25;4.25;;;;;14.37;52.11;100980.22;2087865;28;46783;-64
2023/03/21 03:21:08;;;;;;;;;5.25;5.00;;;;;14.37;52.13;100985.56;2101187;27;46943;-66
2023/03/21 03:22:15;;;;;;;;;5.50;5.50;;;;;14.37;52.15;100982.88;2102995;27;46755;-65
2023/03/21 03:23:26;;;;;;;;;5.25;5.25;;;;;14.36;52.11;100978.47;2108723;27;46631;-65
2023/03/21 03:24:35;;;;;;;;;9.00;9.00;;;;;14.36;52.06;100978.47;2112697;27;46488;-66
2023/03/21 03:25:47;;;;;;;;;7.40;6.00;;;;;14.36;52.03;100980.28;2112984;27;47084;-65
2023/03/21 03:27:12;;;;;;;;;6.20;6.20;;;;;14.36;52.05;100974.94;2107659;27;46598;-66
2023/03/21 03:28:14;;;;;;;;;5.80;5.80;;;;;14.35;52.03;100987.38;2107520;27;46557;-66
2023/03/21 03:29:19;;;;;;;;;5.60;5.60;;;;;14.36;52.07;100982.94;2112159;27;46617;-67
2023/03/21 03:30:20;;;;;;;;;6.80;6.80;;;;;14.35;51.78;100981.16;2109119;27;46779;-66
2023/03/21 03:31:28;;;;;;;;;5.20;5.20;;;;;14.33;51.96;100981.22;2109555;27;46858;-64
2023/03/21 03:32:52;;;;;;;;;6.40;6.40;;;;;14.33;52.09;100980.34;2095875;28;46633;-66
2023/03/21 03:33:57;;;;;;;;;7.00;6.00;;;;;14.33;52.10;100970.53;2100776;28;46724;-65
2023/03/21 03:34:57;;;;;;;;;6.20;6.20;;;;;14.35;51.86;100965.16;2104420;27;47266;-65
2023/03/21 03:35:59;;;;;;;;;7.25;6.50;;;;;14.36;52.13;100969.59;2106932;27;46026;-65
2023/03/21 03:37:04;;;;;;;;;6.00;6.00;;;;;14.38;52.16;100960.59;2110268;27;46303;-65
2023/03/21 03:38:06;;;;;;;;;9.00;7.00;;;;;14.40;51.84;100973.91;2112915;27;46533;-64
2023/03/21 03:39:10;;;;;;;;;6.40;6.40;;;;;14.38;51.70;100968.59;2112749;27;46439;-66
2023/03/21 03:40:16;;;;;;;;;6.80;6.80;;;;;14.38;52.22;100971.28;2112030;27;46351;-65
2023/03/21 03:41:23;;;;;;;;;8.20;6.40;;;;;14.37;51.67;100969.53;2111689;27;46400;-65
2023/03/21 03:42:29;;;;;;;;;5.20;5.20;;;;;14.36;51.62;100972.25;2107480;27;45513;-64
2023/03/21 03:43:38;;;;;;;;;6.60;6.60;;;;;14.35;51.91;100967.81;2108602;27;46314;-63
2023/03/21 03:44:39;;;;;;;;;5.60;5.20;;;;;14.34;51.62;100966.06;2103703;28;46059;-65
2023/03/21 03:45:48;;;;;;;;;4.25;4.25;;;;;14.33;51.47;100969.66;2109126;27;46409;-64
2023/03/21 03:46:59;;;;;;;;;4.40;4.40;;;;;14.31;51.70;100963.50;2107015;27;46421;-65
2023/03/21 03:48:17;;;;;;;;;5.60;5.60;;;;;14.29;51.64;100955.56;2105629;27;46646;-66
2023/03/21 03:49:24;;;;;;;;;6.40;6.20;;;;;14.28;51.43;100966.28;2095265;28;46577;-65
2023/03/21 03:50:43;;;;;;;;;7.00;7.00;;;;;14.29;51.87;100962.69;2100649;27;46705;-64
2023/03/21 03:52:05;;;;;;;;;5.00;5.00;;;;;14.29;51.82;100968.03;2105209;27;46610;-65
2023/03/21 03:53:20;;;;;;;;;8.20;7.80;;;;;14.29;51.92;100968.03;2105135;27;45881;-65
2023/03/21 03:54:27;;;;;;;;;4.60;4.60;;;;;14.28;51.62;100958.28;2096012;28;45800;-65
2023/03/21 03:55:33;;;;;;;;;6.00;6.00;;;;;14.27;51.62;100954.75;2102442;28;45252;-66
2023/03/21 03:56:33;;;;;;;;;5.40;5.40;;;;;14.29;51.93;100957.34;2109035;27;46740;-66
2023/03/21 03:57:34;;;;;;;;;6.50;4.50;;;;;14.29;51.61;100968.91;2103831;28;46191;-65
2023/03/21 03:58:37;;;;;;;;;5.20;5.20;;;;;14.28;51.49;100963.63;2098258;28;46797;-65
2023/03/21 03:59:41;;;;;;;;;6.20;5.00;;;;;14.28;51.57;100966.28;2106700;27;46995;-65
2023/03/21 04:00:42;;;;;;;;;4.40;4.20;;;;;14.27;51.43;100959.22;2104366;28;46870;-65
2023/03/21 04:01:42;;;;;;;;;5.00;5.00;;;;;14.28;51.40;100960.94;2111211;27;46456;-66
2023/03/21 04:02:43;;;;;;;;;4.75;4.00;;;;;14.28;51.31;100960.94;2113552;27;46626;-65
2023/03/21 04:03:50;;;;;;;;;7.25;6.75;;;;;14.29;51.55;100958.22;2104505;27;46418;-65
2023/03/21 04:04:52;;;;;;;;;5.75;5.75;;;;;14.29;51.75;100960.03;2104200;27;45737;-68
2023/03/21 04:05:52;;;;;;;;;5.00;5.00;;;;;14.28;51.27;100950.28;2105035;27;46389;-65
2023/03/21 04:06:53;;;;;;;;;7.00;6.00;;;;;14.28;51.57;100958.28;2105390;27;45721;-66
2023/03/21 04:07:54;;;;;;;;;4.67;4.67;;;;;14.26;51.47;100961.00;2106922;27;46737;-66
2023/03/21 04:08:55;;;;;;;;;6.67;5.67;;;;;14.27;51.72;100961.88;2097425;27;46305;-66
2023/03/21 04:09:56;;;;;;;;;4.25;4.25;;;;;14.26;51.40;100963.69;2112651;27;46583;-66
2023/03/21 04:10:57;;;;;;;;;4.33;4.33;;;;;14.27;51.44;100964.53;2112891;27;46265;-66
2023/03/21 04:11:57;;;;;;;;;4.67;4.67;;;;;14.26;51.40;100965.47;2113312;27;45577;-65
2023/03/21 04:12:58;;;;;;;;;3.00;3.00;;;;;14.26;51.35;100958.34;2110986;27;46806;-66
2023/03/21 04:13:58;;;;;;;;;5.33;4.33;;;;;14.27;51.80;100956.53;2107002;27;46816;-66
2023/03/21 04:14:58;;;;;;;;;6.33;5.00;;;;;14.26;51.28;100955.66;2104927;27;46601;-67
2023/03/21 04:15:59;;;;;;;;;4.00;4.00;;;;;14.25;51.22;100947.72;2108719;27;46707;-67
2023/03/21 04:16:59;;;;;;;;;4.25;4.25;;;;;14.23;51.42;100962.88;2095707;28;46642;-66
2023/03/21 04:18:00;;;;;;;;;3.00;3.00;;;;;14.23;51.12;100965.53;2100096;28;46876;-66
2023/03/21 04:19:01;;;;;;;;;4.75;4.75;;;;;14.21;51.54;100965.59;2106530;27;45969;-66
2023/03/21 04:20:04;;;;;;;;;3.60;3.60;;;;;14.21;51.34;100975.41;2106222;27;46523;-65
2023/03/21 04:21:12;;;;;;;;;5.40;4.20;;;;;14.20;51.34;100979.00;2109085;27;47292;-65
2023/03/21 04:22:13;;;;;;;;;5.20;4.40;;;;;14.18;51.09;100973.72;2106447;27;46569;-64
2023/03/21 04:23:13;;;;;;;;;4.50;4.50;;;;;14.18;51.45;100978.19;2106590;27;46067;-66
2023/03/21 04:24:14;;;;;;;;;4.67;4.67;;;;;14.17;51.33;100982.66;2100083;28;46072;-66
2023/03/21 04:25:14;;;;;;;;;7.25;7.25;;;;;14.17;51.44;100981.78;2096349;27;46299;-65
2023/03/21 04:26:15;;;;;;;;;3.67;3.67;;;;;14.16;51.54;100982.69;2109903;27;46417;-65
2023/03/21 04:27:15;;;;;;;;;5.67;4.67;;;;;14.14;51.39;100983.63;2109486;27;46672;-65
2023/03/21 04:28:16;;;;;;;;;5.00;5.00;;;;;14.14;51.47;100991.63;2106618;27;46534;-65
2023/03/21 04:29:16;;;;;;;;;5.00;4.00;;;;;14.14;51.53;100983.63;2110789;27;46372;-65
2023/03/21 04:30:18;;;;;;;;;6.33;5.33;;;;;14.13;51.90;100976.53;2108040;27;46218;-66
2023/03/21 04:31:18;;;;;;;;;4.00;4.00;;;;;14.13;51.80;100975.69;2107888;27;46735;-67
2023/03/21 04:32:23;;;;;;;;;5.67;5.67;;;;;14.13;51.81;100978.34;2107338;27;46791;-66
2023/03/21 04:33:24;;;;;;;;;4.75;4.75;;;;;14.12;51.67;100974.81;2105035;28;46600;-66
2023/03/21 04:34:27;;;;;;;;;7.50;5.50;;;;;14.11;51.40;100973.06;2100012;28;46513;-64
2023/03/21 04:35:27;;;;;;;;;4.75;3.75;;;;;14.10;51.51;100983.75;2108869;27;45934;-66
2023/03/21 04:36:37;;;;;;;;;4.67;4.67;;;;;14.09;51.70;100977.53;2114160;27;46199;-66
2023/03/21 04:37:38;;;;;;;;;5.75;5.75;;;;;14.10;51.48;100981.09;2099348;28;46878;-65
2023/03/21 04:38:38;;;;;;;;;5.00;5.00;;;;;14.10;51.86;100971.31;2099322;28;46605;-65
2023/03/21 04:39:39;;;;;;;;;5.00;5.00;;;;;14.12;51.51;100977.47;2105423;28;46222;-65
2023/03/21 04:40:39;;;;;;;;;4.67;4.00;;;;;14.12;51.32;100968.59;2108694;27;46641;-66
2023/03/21 04:41:45;;;;;;;;;3.67;3.67;;;;;14.11;51.90;100973.06;2104775;28;46771;-66
2023/03/21 04:42:47;;;;;;;;;5.25;5.25;;;;;14.10;51.34;100970.41;2097934;28;45769;-64
2023/03/21 04:43:47;;;;;;;;;7.00;5.50;;;;;14.09;51.54;100969.53;2106880;27;46744;-63
2023/03/21 04:44:48;;;;;;;;;4.00;4.00;;;;;14.08;51.48;100961.59;2102742;28;45921;-66
2023/03/21 04:45:49;;;;;;;;;4.33;4.33;;;;;14.08;51.52;100964.25;2096328;28;46417;-64
2023/03/21 04:46:50;;;;;;;;;4.00;4.00;;;;;14.06;51.45;100961.63;2106571;27;46357;-65
2023/03/21 04:47:50;;;;;;;;;4.50;4.00;;;;;14.06;51.66;100958.97;2105594;27;46301;-65
2023/03/21 04:48:51;;;;;;;;;4.33;4.33;;;;;14.06;51.78;100958.09;2107519;27;46232;-65
2023/03/21 04:49:52;;;;;;;;;5.67;4.33;;;;;14.05;51.90;100959.91;2097863;28;46446;-64
2023/03/21 04:50:52;;;;;;;;;7.00;4.75;;;;;14.03;52.05;100956.41;2097679;28;46929;-65
2023/03/21 04:51:53;;;;;;;;;7.00;5.33;;;;;14.03;51.88;100964.41;2107311;27;46164;-65
2023/03/21 04:52:53;;;;;;;;;5.00;5.00;;;;;14.04;51.83;100959.94;2105147;28;46309;-65
2023/03/21 04:53:56;;;;;;;;;5.00;5.00;;;;;14.03;51.77;100947.53;2106705;27;46842;-64
2023/03/21 04:54:56;;;;;;;;;6.50;5.50;;;;;14.03;51.93;100958.19;2108256;27;46489;-65
2023/03/21 04:55:57;;;;;;;;;5.00;4.00;;;;;14.02;51.74;100962.66;2114319;27;46198;-64
2023/03/21 04:56:58;;;;;;;;;5.33;4.33;;;;;14.02;51.92;100960.00;2108509;27;46236;-64
2023/03/21 04:57:58;;;;;;;;;5.75;4.25;;;;;14.02;51.91;100956.47;2103719;27;46907;-65
2023/03/21 04:59:05;;;;;;;;;4.00;4.00;;;;;14.02;52.24;100968.00;2105368;28;46422;-65
2023/03/21 05:00:09;;;;;;;;;6.80;6.80;;;;;14.01;52.28;100960.94;2111099;27;45729;-65
2023/03/21 05:01:09;;;;;;;;;5.75;5.75;;;;;14.02;52.52;100961.81;2113358;27;47032;-65
2023/03/21 05:02:10;;;;;;;;;7.00;5.33;;;;;14.01;52.23;100960.06;2113853;27;46463;-64